Time;durP1;ratioP1;P1;durP2;ratioP2;P2;SDS_P1;SDS_P2;PMS_P1;PMS_P2;Temp;Humidity;BMP_temperature;BMP_pressure;BME280_temperature;BME280_humidity;BME280_pressure;Samples;Min_cycle;Max_cycle;Signal;HPM_P1;HPM_P2
2023/01/22 00:01:17;;;;;;;3.83;3.00;;;;;;;;;;4970852;28;20134;-74
2023/01/22 00:03:42;;;;;;;4.50;3.20;;;;;;;;;;4988321;28;20061;-74
2023/01/22 00:06:08;;;;;;;3.92;2.95;;;;;;;;;;4970654;28;20460;-74
2023/01/22 00:08:33;;;;;;;3.97;3.10;;;;;;;;;;4987266;28;20100;-75
2023/01/22 00:10:58;;;;;;;4.53;3.27;;;;;;;;;;5002421;28;20076;-74
2023/01/22 00:13:24;;;;;;;3.80;3.07;;;;;;;;;;4986199;28;20312;-74
2023/01/22 00:15:49;;;;;;;3.63;3.05;;;;;;;;;;4970143;28;20035;-74
2023/01/22 00:18:14;;;;;;;4.13;3.30;;;;;;;;;;4987690;28;20126;-74
2023/01/22 00:20:39;;;;;;;3.72;2.97;;;;;;;;;;4986380;28;20274;-73
2023/01/22 00:23:05;;;;;;;4.60;3.50;;;;;;;;;;4986929;28;20496;-73
2023/01/22 00:25:30;;;;;;;3.85;3.10;;;;;;;;;;4959284;28;20150;-74
2023/01/22 00:27:55;;;;;;;4.07;3.20;;;;;;;;;;4987983;28;20510;-74
2023/01/22 00:30:20;;;;;;;4.70;3.40;;;;;;;;;;4990087;28;20033;-74
2023/01/22 00:32:46;;;;;;;4.40;3.30;;;;;;;;;;4966323;28;20294;-74
2023/01/22 00:35:11;;;;;;;4.17;3.20;;;;;;;;;;4985826;28;20279;-74
2023/01/22 00:37:36;;;;;;;4.00;3.15;;;;;;;;;;4998654;28;20667;-74
2023/01/22 00:40:02;;;;;;;4.07;3.13;;;;;;;;;;4973716;28;20043;-74
2023/01/22 00:42:27;;;;;;;3.83;3.08;;;;;;;;;;4969644;28;20708;-72
2023/01/22 00:44:52;;;;;;;4.10;3.13;;;;;;;;;;4987406;28;20587;-74
2023/01/22 00:47:17;;;;;;;4.45;3.15;;;;;;;;;;4987594;28;20284;-72
2023/01/22 00:49:42;;;;;;;4.00;3.60;;;;;;;;;;4986099;28;20106;-73
2023/01/22 00:52:08;;;;;;;4.30;3.30;;;;;;;;;;4969981;28;20298;-73
2023/01/22 00:54:33;;;;;;;3.78;3.10;;;;;;;;;;4970646;28;20049;-74
2023/01/22 00:56:58;;;;;;;4.00;3.10;;;;;;;;;;4989427;28;20338;-73
2023/01/22 00:59:24;;;;;;;4.07;3.20;;;;;;;;;;4989400;28;20118;-73
2023/01/22 01:01:49;;;;;;;4.03;3.45;;;;;;;;;;4989400;28;20843;-75
2023/01/22 01:04:14;;;;;;;4.67;3.57;;;;;;;;;;4971753;28;20038;-75
2023/01/22 01:06:39;;;;;;;4.50;3.60;;;;;;;;;;4987160;28;20274;-73
2023/01/22 01:09:04;;;;;;;5.10;3.33;;;;;;;;;;4990540;28;20301;-74
2023/01/22 01:11:30;;;;;;;3.95;3.00;;;;;;;;;;4991594;28;20340;-72
2023/01/22 01:13:55;;;;;;;4.22;3.13;;;;;;;;;;4998431;28;20811;-72
2023/01/22 01:16:30;;;;;;;4.25;3.22;;;;;;;;;;4991311;28;20034;-73
2023/01/22 01:18:59;;;;;;;4.03;3.25;;;;;;;;;;4969460;28;20034;-73
2023/01/22 01:21:25;;;;;;;3.78;3.08;;;;;;;;;;4979074;28;20038;-72
2023/01/22 01:23:50;;;;;;;3.83;2.97;;;;;;;;;;4994726;28;20044;-73
2023/01/22 01:26:15;;;;;;;4.47;3.50;;;;;;;;;;4991124;28;20039;-71
2023/01/22 01:28:41;;;;;;;4.45;3.50;;;;;;;;;;4973115;28;21077;-73
2023/01/22 01:31:07;;;;;;;4.35;3.25;;;;;;;;;;4990708;28;20026;-72
2023/01/22 01:33:32;;;;;;;4.75;3.40;;;;;;;;;;4977942;28;20046;-73
2023/01/22 01:35:58;;;;;;;4.77;3.50;;;;;;;;;;4973248;28;20038;-74
2023/01/22 01:38:23;;;;;;;4.68;3.45;;;;;;;;;;4996975;28;20278;-75
2023/01/22 01:40:49;;;;;;;4.90;3.60;;;;;;;;;;4972784;28;20461;-75
2023/01/22 01:43:14;;;;;;;4.63;3.90;;;;;;;;;;4990486;28;20292;-75
2023/01/22 01:45:40;;;;;;;4.65;3.35;;;;;;;;;;4977620;28;20293;-74
2023/01/22 01:48:05;;;;;;;5.57;3.28;;;;;;;;;;4979724;28;20042;-73
2023/01/22 01:50:31;;;;;;;4.57;3.42;;;;;;;;;;5005420;28;20034;-73
2023/01/22 01:52:56;;;;;;;4.22;3.38;;;;;;;;;;4972709;28;20167;-74
2023/01/22 01:55:23;;;;;;;4.85;3.60;;;;;;;;;;4973201;28;20035;-74
2023/01/22 01:57:48;;;;;;;3.63;3.08;;;;;;;;;;4993297;28;20041;-73
2023/01/22 02:00:14;;;;;;;3.85;3.20;;;;;;;;;;4973016;28;20034;-73
2023/01/22 02:02:40;;;;;;;5.72;3.80;;;;;;;;;;4972572;28;20042;-73
2023/01/22 02:05:05;;;;;;;4.35;3.38;;;;;;;;;;4996692;28;20726;-74
2023/01/22 02:07:31;;;;;;;3.38;2.90;;;;;;;;;;4971691;28;20062;-74
2023/01/22 02:09:56;;;;;;;4.40;3.40;;;;;;;;;;5004078;28;20077;-73
2023/01/22 02:12:21;;;;;;;4.00;3.23;;;;;;;;;;4988746;28;20316;-73
2023/01/22 02:14:46;;;;;;;3.90;3.20;;;;;;;;;;4987827;28;20273;-74
2023/01/22 02:17:17;;;;;;;4.05;3.35;;;;;;;;;;4988183;28;20286;-74
2023/01/22 02:19:42;;;;;;;4.40;3.35;;;;;;;;;;4974797;28;20080;-73
2023/01/22 02:22:11;;;;;;;3.90;3.10;;;;;;;;;;4979045;28;20050;-73
2023/01/22 02:24:37;;;;;;;4.10;3.40;;;;;;;;;;4975824;28;20281;-73
2023/01/22 02:27:02;;;;;;;4.47;3.53;;;;;;;;;;4972144;28;20038;-74
2023/01/22 02:29:28;;;;;;;4.60;3.40;;;;;;;;;;4987483;28;20052;-73
2023/01/22 02:31:53;;;;;;;3.95;3.40;;;;;;;;;;4991969;28;20055;-74
2023/01/22 02:34:18;;;;;;;4.83;3.83;;;;;;;;;;4988005;28;20089;-73
2023/01/22 02:36:44;;;;;;;4.17;3.33;;;;;;;;;;4989727;28;20659;-73
2023/01/22 02:39:09;;;;;;;4.82;3.22;;;;;;;;;;4988276;28;20288;-74
2023/01/22 02:41:34;;;;;;;4.10;3.20;;;;;;;;;;4971520;28;20062;-74
2023/01/22 02:43:59;;;;;;;4.03;3.23;;;;;;;;;;4987612;28;20030;-73
2023/01/22 02:46:25;;;;;;;3.73;3.17;;;;;;;;;;4988123;28;20277;-74
2023/01/22 02:48:50;;;;;;;5.30;3.75;;;;;;;;;;4971841;28;20031;-73
2023/01/22 02:51:15;;;;;;;4.53;3.50;;;;;;;;;;4971554;28;20062;-74
2023/01/22 02:53:41;;;;;;;4.30;3.30;;;;;;;;;;4988580;28;20520;-74
2023/01/22 02:56:06;;;;;;;3.58;3.08;;;;;;;;;;4988993;28;20455;-74
2023/01/22 02:58:32;;;;;;;4.90;3.70;;;;;;;;;;4989498;28;20054;-74
2023/01/22 03:01:05;;;;;;;4.90;3.30;;;;;;;;;;4987932;28;20480;-75
2023/01/22 03:03:30;;;;;;;4.47;3.50;;;;;;;;;;4971676;28;20550;-73
2023/01/22 03:05:56;;;;;;;4.03;3.33;;;;;;;;;;4987734;28;20117;-75
2023/01/22 03:08:21;;;;;;;4.87;3.27;;;;;;;;;;4987992;28;20841;-75
2023/01/22 03:10:46;;;;;;;4.20;3.30;;;;;;;;;;5003818;28;20632;-74
2023/01/22 03:21:23;;;;;;;4.82;3.50;;;;;;;;;;4988823;28;20453;-73
2023/01/22 03:23:49;;;;;;;4.43;3.20;;;;;;;;;;4986617;28;20030;-73
2023/01/22 03:26:14;;;;;;;4.03;3.35;;;;;;;;;;4987514;28;20030;-73
2023/01/22 03:28:40;;;;;;;4.05;3.47;;;;;;;;;;4971596;28;20546;-74
2023/01/22 03:31:05;;;;;;;4.15;3.38;;;;;;;;;;4988450;28;20034;-75
2023/01/22 03:33:30;;;;;;;4.60;3.53;;;;;;;;;;4975405;28;20432;-74
2023/01/22 03:36:02;;;;;;;4.25;3.22;;;;;;;;;;4970647;28;20686;-73
2023/01/22 03:38:28;;;;;;;5.38;3.47;;;;;;;;;;4994808;28;20136;-74
2023/01/22 03:40:59;;;;;;;3.97;3.20;;;;;;;;;;4985042;28;20045;-74
2023/01/22 03:43:24;;;;;;;4.57;3.55;;;;;;;;;;4988746;28;20273;-74
2023/01/22 03:45:49;;;;;;;4.23;2.80;;;;;;;;;;4987312;28;20037;-74
2023/01/22 03:48:15;;;;;;;4.80;3.30;;;;;;;;;;4987015;28;20829;-74
2023/01/22 03:50:40;;;;;;;4.57;3.40;;;;;;;;;;4988260;28;20504;-74
2023/01/22 03:53:05;;;;;;;3.63;3.13;;;;;;;;;;4979785;28;20543;-75
2023/01/22 03:55:30;;;;;;;4.27;3.13;;;;;;;;;;4992408;28;20509;-74
2023/01/22 03:57:55;;;;;;;4.83;3.30;;;;;;;;;;4986729;28;20638;-74
2023/01/22 04:00:21;;;;;;;4.53;3.23;;;;;;;;;;4987267;28;20579;-74
2023/01/22 04:02:48;;;;;;;3.73;3.17;;;;;;;;;;4989248;28;20514;-74
2023/01/22 04:05:13;;;;;;;3.88;3.25;;;;;;;;;;4999392;28;20284;-74
2023/01/22 04:07:38;;;;;;;4.13;3.25;;;;;;;;;;4970217;28;20042;-74
2023/01/22 04:10:04;;;;;;;4.23;3.53;;;;;;;;;;4988159;28;20817;-74
2023/01/22 04:12:29;;;;;;;4.50;3.28;;;;;;;;;;4988871;28;20688;-75
2023/01/22 04:14:54;;;;;;;4.13;3.30;;;;;;;;;;4989860;28;20034;-73
2023/01/22 04:17:19;;;;;;;4.67;3.20;;;;;;;;;;4988396;28;20034;-73
2023/01/22 04:19:44;;;;;;;3.93;3.13;;;;;;;;;;4987794;28;20282;-73
2023/01/22 04:22:10;;;;;;;4.90;3.70;;;;;;;;;;4970007;28;20297;-74
2023/01/22 04:24:35;;;;;;;3.60;3.20;;;;;;;;;;4987262;28;20318;-74
2023/01/22 04:27:00;;;;;;;4.03;3.42;;;;;;;;;;4987519;28;20331;-73
2023/01/22 04:29:25;;;;;;;4.25;3.53;;;;;;;;;;4987161;28;20694;-73
2023/01/22 04:31:51;;;;;;;3.60;3.10;;;;;;;;;;4970302;28;20413;-73
2023/01/22 04:34:16;;;;;;;3.95;3.20;;;;;;;;;;4974741;28;20605;-74
2023/01/22 04:36:41;;;;;;;3.93;3.37;;;;;;;;;;4986567;28;20033;-73
2023/01/22 04:39:06;;;;;;;3.97;3.20;;;;;;;;;;4970826;28;20035;-73
2023/01/22 04:41:32;;;;;;;4.63;3.30;;;;;;;;;;4986261;28;20285;-74
2023/01/22 04:43:57;;;;;;;3.30;3.00;;;;;;;;;;4989796;28;20347;-73
2023/01/22 04:46:22;;;;;;;4.63;3.40;;;;;;;;;;4979296;28;20044;-73
2023/01/22 04:48:47;;;;;;;4.63;3.37;;;;;;;;;;4974640;28;20375;-74
2023/01/22 04:51:13;;;;;;;4.13;3.47;;;;;;;;;;4981086;28;20367;-74
2023/01/22 04:53:38;;;;;;;4.13;3.47;;;;;;;;;;4992294;28;20220;-74
2023/01/22 04:56:03;;;;;;;4.17;3.17;;;;;;;;;;4974413;28;20281;-74
2023/01/22 04:58:28;;;;;;;4.45;3.22;;;;;;;;;;4973468;28;20509;-73
2023/01/22 05:00:55;;;;;;;4.05;3.30;;;;;;;;;;4990926;28;20589;-73
2023/01/22 05:03:20;;;;;;;3.83;3.15;;;;;;;;;;4990848;28;20042;-73
2023/01/22 05:05:45;;;;;;;4.40;3.20;;;;;;;;;;4989677;28;20038;-73
2023/01/22 05:08:10;;;;;;;4.20;3.00;;;;;;;;;;4990143;28;20308;-73
2023/01/22 05:10:35;;;;;;;4.17;3.17;;;;;;;;;;4957156;28;20357;-73
2023/01/22 05:13:01;;;;;;;5.03;3.40;;;;;;;;;;4997306;28;20873;-74
2023/01/22 05:15:26;;;;;;;3.90;3.50;;;;;;;;;;4994389;28;20269;-74
2023/01/22 05:17:52;;;;;;;3.85;3.05;;;;;;;;;;4973405;28;20195;-74
2023/01/22 05:20:17;;;;;;;3.60;3.17;;;;;;;;;;4972894;28;20038;-74
2023/01/22 05:22:42;;;;;;;4.43;3.20;;;;;;;;;;4991603;28;20318;-74
2023/01/22 05:25:08;;;;;;;3.78;2.97;;;;;;;;;;4988932;28;20034;-73
2023/01/22 05:27:33;;;;;;;4.25;3.17;;;;;;;;;;4988515;28;20500;-73
2023/01/22 05:29:58;;;;;;;4.07;3.13;;;;;;;;;;4977961;28;20476;-73
2023/01/22 05:32:24;;;;;;;4.80;3.20;;;;;;;;;;4987403;28;20050;-73
2023/01/22 05:34:49;;;;;;;3.80;2.70;;;;;;;;;;4972929;28;20516;-74
2023/01/22 05:37:14;;;;;;;4.07;3.35;;;;;;;;;;4976209;28;20550;-73
2023/01/22 05:39:39;;;;;;;3.73;2.93;;;;;;;;;;4995185;28;20058;-74
2023/01/22 05:42:05;;;;;;;4.07;3.17;;;;;;;;;;4990219;28;20364;-74
2023/01/22 05:44:30;;;;;;;3.70;3.20;;;;;;;;;;4972834;28;20277;-73
2023/01/22 05:46:55;;;;;;;3.58;2.90;;;;;;;;;;4995075;28;20285;-74
2023/01/22 05:49:20;;;;;;;3.80;2.93;;;;;;;;;;5005625;28;20277;-73
2023/01/22 05:51:48;;;;;;;4.47;3.30;;;;;;;;;;4999385;28;20273;-73
2023/01/22 05:54:13;;;;;;;4.35;3.20;;;;;;;;;;4970685;28;20285;-73
2023/01/22 05:56:39;;;;;;;3.92;3.03;;;;;;;;;;4988496;28;20022;-73
2023/01/22 05:59:04;;;;;;;3.67;2.97;;;;;;;;;;4971184;28;20220;-74
2023/01/22 06:01:29;;;;;;;3.50;2.80;;;;;;;;;;5005406;28;20066;-72
2023/01/22 06:03:54;;;;;;;4.20;2.90;;;;;;;;;;4974390;28;20659;-74
2023/01/22 06:06:20;;;;;;;3.67;2.80;;;;;;;;;;5004981;28;20090;-78
2023/01/22 06:08:45;;;;;;;3.27;2.63;;;;;;;;;;5006777;28;20392;-75
2023/01/22 06:11:11;;;;;;;3.83;2.90;;;;;;;;;;4990199;28;20101;-75
2023/01/22 06:13:37;;;;;;;3.40;2.63;;;;;;;;;;4992612;28;20038;-76
2023/01/22 06:16:02;;;;;;;3.20;2.70;;;;;;;;;;4990589;28;20044;-73
2023/01/22 06:18:27;;;;;;;3.60;2.63;;;;;;;;;;4975180;28;20735;-76
2023/01/22 06:20:56;;;;;;;3.17;2.40;;;;;;;;;;4990355;28;20308;-75
2023/01/22 06:23:21;;;;;;;3.33;2.90;;;;;;;;;;4990450;28;20273;-75
2023/01/22 06:25:50;;;;;;;3.25;2.60;;;;;;;;;;4977028;28;20041;-81
2023/01/22 06:28:15;;;;;;;3.47;2.60;;;;;;;;;;4975230;28;20031;-78
2023/01/22 06:30:41;;;;;;;4.10;2.90;;;;;;;;;;4990473;28;20033;-75
2023/01/22 06:33:06;;;;;;;3.30;2.50;;;;;;;;;;4989341;28;20038;-75
2023/01/22 06:35:31;;;;;;;4.68;2.55;;;;;;;;;;4988220;28;20042;-75
2023/01/22 06:37:57;;;;;;;2.65;2.35;;;;;;;;;;4988786;28;20038;-76
2023/01/22 06:40:22;;;;;;;3.13;2.50;;;;;;;;;;4989364;28;20062;-75
2023/01/22 06:42:47;;;;;;;3.00;2.40;;;;;;;;;;4988473;28;20332;-76
2023/01/22 06:45:12;;;;;;;3.80;2.60;;;;;;;;;;4987854;28;20290;-72
2023/01/22 06:47:41;;;;;;;4.07;2.33;;;;;;;;;;4989093;28;20089;-73
2023/01/22 06:50:07;;;;;;;2.90;2.33;;;;;;;;;;4989259;28;20293;-73
2023/01/22 06:52:32;;;;;;;3.05;2.55;;;;;;;;;;4988958;28;20046;-74
2023/01/22 06:54:57;;;;;;;2.37;1.93;;;;;;;;;;4984489;28;20030;-71
2023/01/22 06:57:23;;;;;;;3.30;2.60;;;;;;;;;;4987658;28;20281;-70
2023/01/22 06:59:48;;;;;;;3.00;2.47;;;;;;;;;;4988940;28;20328;-72
2023/01/22 07:02:17;;;;;;;2.90;2.15;;;;;;;;;;4979560;28;20095;-75
2023/01/22 07:04:42;;;;;;;3.10;2.60;;;;;;;;;;4987755;28;20103;-72
2023/01/22 07:07:07;;;;;;;3.03;2.50;;;;;;;;;;4986825;28;20133;-78
2023/01/22 07:09:32;;;;;;;2.60;2.30;;;;;;;;;;4955171;28;20273;-76
2023/01/22 07:11:59;;;;;;;3.20;2.58;;;;;;;;;;4971511;28;20121;-75
2023/01/22 07:14:25;;;;;;;3.28;2.50;;;;;;;;;;4989954;28;20046;-74
2023/01/22 07:16:50;;;;;;;3.63;2.70;;;;;;;;;;4987809;28;20034;-76
2023/01/22 07:19:15;;;;;;;5.10;2.70;;;;;;;;;;4987770;28;20052;-75
2023/01/22 07:21:40;;;;;;;3.40;2.13;;;;;;;;;;4985800;28;20031;-76
2023/01/22 07:24:06;;;;;;;2.87;2.23;;;;;;;;;;4971124;28;20289;-74
2023/01/22 07:26:31;;;;;;;3.50;2.55;;;;;;;;;;4984262;28;20807;-73
2023/01/22 07:28:56;;;;;;;3.07;2.20;;;;;;;;;;4987598;28;20093;-76
2023/01/22 07:31:21;;;;;;;3.53;2.43;;;;;;;;;;4986782;28;20113;-79
2023/01/22 07:33:47;;;;;;;2.87;2.37;;;;;;;;;;4988679;28;20046;-75
2023/01/22 07:36:12;;;;;;;3.30;2.60;;;;;;;;;;4991295;28;20371;-76
2023/01/22 07:38:37;;;;;;;2.70;2.20;;;;;;;;;;4988505;28;20308;-72
2023/01/22 07:41:03;;;;;;;3.33;2.60;;;;;;;;;;4988309;28;20285;-74
2023/01/22 07:43:28;;;;;;;2.83;2.40;;;;;;;;;;4987655;28;20295;-73
2023/01/22 07:45:53;;;;;;;2.45;2.00;;;;;;;;;;4984293;28;20579;-76
2023/01/22 07:48:18;;;;;;;3.10;2.37;;;;;;;;;;4985220;28;20042;-75
2023/01/22 07:50:44;;;;;;;2.90;2.20;;;;;;;;;;4988842;28;20866;-76
2023/01/22 07:53:10;;;;;;;2.73;2.20;;;;;;;;;;4987658;28;20070;-76
2023/01/22 07:55:35;;;;;;;2.50;2.08;;;;;;;;;;4972618;28;20052;-76
2023/01/22 07:58:02;;;;;;;2.45;2.03;;;;;;;;;;4986852;28;20038;-76
2023/01/22 08:00:27;;;;;;;2.72;1.95;;;;;;;;;;4988079;28;20085;-74
2023/01/22 08:02:53;;;;;;;3.55;2.08;;;;;;;;;;4973185;28;20409;-76
2023/01/22 08:05:18;;;;;;;2.85;2.33;;;;;;;;;;4971321;28;20107;-78
2023/01/22 08:07:43;;;;;;;2.87;2.20;;;;;;;;;;4986688;28;20042;-73
2023/01/22 08:10:09;;;;;;;2.67;2.17;;;;;;;;;;4990811;28;20893;-74
2023/01/22 08:12:37;;;;;;;3.60;2.28;;;;;;;;;;4987863;28;20039;-73
2023/01/22 08:15:02;;;;;;;4.80;2.67;;;;;;;;;;4972227;28;20037;-74
2023/01/22 08:17:27;;;;;;;4.60;2.25;;;;;;;;;;5005246;28;20027;-74
2023/01/22 08:19:53;;;;;;;5.43;2.20;;;;;;;;;;4990373;28;20547;-73
2023/01/22 08:22:18;;;;;;;3.50;2.45;;;;;;;;;;4988647;28;21276;-73
2023/01/22 08:24:43;;;;;;;3.92;2.28;;;;;;;;;;4970768;28;20045;-74
2023/01/22 08:27:08;;;;;;;3.33;2.33;;;;;;;;;;4974642;28;20126;-73
2023/01/22 08:29:34;;;;;;;4.27;2.30;;;;;;;;;;4971548;28;20285;-74
2023/01/22 13:26:25;;;;;;;3.28;2.40;;;;;;;;;;4971137;28;20432;-77
2023/01/22 13:28:55;;;;;;;3.40;2.75;;;;;;;;;;4981276;28;20385;-77
2023/01/22 13:31:20;;;;;;;3.13;2.08;;;;;;;;;;4962477;28;20159;-77
2023/01/22 13:33:58;;;;;;;4.10;2.55;;;;;;;;;;5001648;28;20038;-77
2023/01/22 13:36:24;;;;;;;2.63;2.28;;;;;;;;;;4966914;28;20034;-77
2023/01/22 13:38:50;;;;;;;3.40;2.10;;;;;;;;;;4941408;28;20030;-79
2023/01/22 13:41:26;;;;;;;3.20;2.30;;;;;;;;;;4969684;28;20053;-79
2023/01/22 13:43:51;;;;;;;3.78;2.38;;;;;;;;;;5000152;28;20538;-80
2023/01/22 13:46:17;;;;;;;4.97;2.77;;;;;;;;;;4969785;28;20122;-81
2023/01/22 13:48:42;;;;;;;3.50;2.27;;;;;;;;;;4999112;28;20062;-83
2023/01/22 13:51:13;;;;;;;3.60;1.97;;;;;;;;;;4969797;28;20715;-77
2023/01/22 13:53:39;;;;;;;3.65;2.50;;;;;;;;;;4969055;28;20333;-79
2023/01/22 13:56:05;;;;;;;3.63;2.30;;;;;;;;;;4968431;28;20495;-78
2023/01/22 13:58:34;;;;;;;3.47;2.28;;;;;;;;;;4954010;28;20034;-78
2023/01/22 14:01:00;;;;;;;;;;;;;;;;;;4985268;28;20042;-78
2023/01/22 14:03:25;;;;;;;2.50;2.30;;;;;;;;;;4986698;28;19910;-80
2023/01/22 14:06:00;;;;;;;2.97;2.42;;;;;;;;;;4969088;28;20405;-81
2023/01/22 14:08:25;;;;;;;3.47;2.30;;;;;;;;;;4986124;28;20030;-81
2023/01/22 14:10:57;;;;;;;2.97;2.20;;;;;;;;;;4985329;28;20491;-76
2023/01/22 14:13:22;;;;;;;2.70;2.10;;;;;;;;;;4968941;28;20289;-84
2023/01/22 14:15:58;;;;;;;3.38;2.33;;;;;;;;;;4970436;28;20650;-84
2023/01/22 14:18:23;;;;;;;3.28;2.33;;;;;;;;;;4987641;28;20068;-84
2023/01/22 14:20:48;;;;;;;2.95;2.20;;;;;;;;;;4987260;28;20054;-85
2023/01/22 14:23:14;;;;;;;2.90;2.10;;;;;;;;;;4968645;28;20054;-86
2023/01/22 14:25:40;;;;;;;3.92;2.08;;;;;;;;;;4986373;28;20517;-84
2023/01/22 14:28:05;;;;;;;3.40;2.35;;;;;;;;;;4989318;28;20038;-84
2023/01/22 14:30:31;;;;;;;3.35;2.17;;;;;;;;;;4970877;28;20046;-88
2023/01/22 14:32:58;;;;;;;5.18;2.30;;;;;;;;;;4972433;28;20042;-81
2023/01/22 14:35:24;;;;;;;3.55;2.13;;;;;;;;;;4970501;28;20061;-81
2023/01/22 14:37:49;;;;;;;4.43;2.20;;;;;;;;;;4966673;28;20113;-83
2023/01/22 14:40:15;;;;;;;2.95;2.13;;;;;;;;;;4970672;28;20047;-81
2023/01/22 14:42:40;;;;;;;2.92;2.20;;;;;;;;;;4986018;28;20084;-85
2023/01/22 14:45:06;;;;;;;3.20;2.25;;;;;;;;;;4968625;28;20054;-68
2023/01/22 14:47:31;;;;;;;5.20;2.35;;;;;;;;;;4965563;28;20500;-76
2023/01/22 14:49:57;;;;;;;3.45;2.30;;;;;;;;;;4983184;28;20043;-86
2023/01/22 14:52:22;;;;;;;3.80;2.00;;;;;;;;;;4964915;28;20452;-88
2023/01/22 14:54:47;;;;;;;3.03;2.33;;;;;;;;;;4953198;28;20323;-87
2023/01/22 14:57:12;;;;;;;3.63;2.00;;;;;;;;;;4965708;28;20281;-86
2023/01/22 14:59:38;;;;;;;2.40;2.03;;;;;;;;;;4966462;28;20038;-87
2023/01/22 15:02:03;;;;;;;3.53;2.45;;;;;;;;;;4981626;28;20041;-85
2023/01/22 15:04:28;;;;;;;3.83;2.50;;;;;;;;;;4942822;28;20049;-85
2023/01/22 15:06:53;;;;;;;4.17;2.03;;;;;;;;;;4975267;28;20026;-86
2023/01/22 15:09:19;;;;;;;3.13;2.20;;;;;;;;;;4970799;28;20069;-86
2023/01/22 15:11:44;;;;;;;3.80;2.33;;;;;;;;;;4959309;28;20293;-86
2023/01/22 15:14:09;;;;;;;2.80;2.00;;;;;;;;;;4963785;28;20046;-86
2023/01/22 15:16:37;;;;;;;2.47;2.00;;;;;;;;;;4986731;28;20030;-86
2023/01/22 15:19:02;;;;;;;2.75;2.20;;;;;;;;;;5002529;28;20336;-86
2023/01/22 15:21:27;;;;;;;3.33;2.10;;;;;;;;;;4949541;28;20057;-88
2023/01/22 15:23:52;;;;;;;3.40;2.30;;;;;;;;;;4946905;28;20077;-89
2023/01/22 15:26:36;;;;;;;2.58;2.05;;;;;;;;;;4985778;28;20300;-89
2023/01/22 15:29:02;;;;;;;4.13;2.35;;;;;;;;;;5003046;28;20369;-88
2023/01/22 15:31:27;;;;;;;3.03;1.92;;;;;;;;;;4963386;28;20157;-86
2023/01/22 15:33:53;;;;;;;4.63;2.27;;;;;;;;;;4967034;28;20146;-88
2023/01/22 15:36:18;;;;;;;3.35;2.30;;;;;;;;;;4974595;28;20348;-87
2023/01/22 15:38:43;;;;;;;2.87;1.73;;;;;;;;;;4963146;28;20098;-87
2023/01/22 15:41:19;;;;;;;3.95;1.83;;;;;;;;;;4926514;29;20287;-88
2023/01/22 15:43:49;;;;;;;3.55;2.10;;;;;;;;;;4940751;28;20032;-88
2023/01/22 15:46:14;;;;;;;2.67;2.03;;;;;;;;;;4970304;28;20042;-87
2023/01/22 15:48:39;;;;;;;3.20;2.33;;;;;;;;;;4986031;28;20088;-87
2023/01/22 15:51:08;;;;;;;12.40;8.63;;;;;;;;;;4943131;28;20031;-87
2023/01/22 15:53:33;;;;;;;17.95;12.18;;;;;;;;;;4949202;28;20045;-87
2023/01/22 15:55:59;;;;;;;28.50;16.63;;;;;;;;;;4979613;28;20030;-89
2023/01/22 15:58:25;;;;;;;27.33;15.68;;;;;;;;;;4959364;28;20298;-76
2023/01/22 16:00:50;;;;;;;18.07;10.10;;;;;;;;;;4985340;28;20258;-77
2023/01/22 16:03:15;;;;;;;16.57;9.03;;;;;;;;;;4995508;28;20198;-77
2023/01/22 16:05:40;;;;;;;12.75;5.72;;;;;;;;;;4984790;28;20603;-77
2023/01/22 16:08:06;;;;;;;7.13;4.50;;;;;;;;;;4984700;28;20531;-74
2023/01/22 16:13:02;;;;;;;4.72;2.70;;;;;;;;;;4967370;23;20320;-61
2023/01/22 16:15:28;;;;;;;4.60;2.80;;;;;;;;;;4979879;28;20051;-73
2023/01/22 16:17:53;;;;;;;4.70;2.63;;;;;;;;;;4966239;28;20294;-73
2023/01/22 16:20:18;;;;;;;3.83;2.33;;;;;;;;;;4963784;28;20039;-69
2023/01/22 16:22:47;;;;;;;3.83;2.22;;;;;;;;;;4965305;28;20106;-71
2023/01/22 16:25:12;;;;;;;6.82;2.33;;;;;;;;;;4965562;28;20047;-64
2023/01/22 16:27:37;;;;;;;3.35;2.20;;;;;;;;;;4981759;28;20489;-67
2023/01/22 16:30:04;;;;;;;5.68;2.50;;;;;;;;;;4984490;28;20034;-64
2023/01/22 16:32:29;;;;;;;4.10;2.40;;;;;;;;;;4992631;23;20049;-69
2023/01/22 16:34:54;;;;;;;3.73;2.50;;;;;;;;;;5004300;28;20096;-74
2023/01/22 16:37:19;;;;;;;3.08;2.10;;;;;;;;;;5012821;28;20096;-69
2023/01/22 16:39:45;;;;;;;4.80;2.30;;;;;;;;;;5017061;28;20470;-67
2023/01/22 16:42:10;;;;;;;4.37;2.30;;;;;;;;;;5009706;28;20025;-65
2023/01/22 16:44:35;;;;;;;3.17;2.10;;;;;;;;;;4995872;28;20784;-71
2023/01/22 16:47:00;;;;;;;3.33;2.30;;;;;;;;;;5001736;28;20319;-71
2023/01/22 16:49:30;;;;;;;2.90;1.80;;;;;;;;;;4993005;28;20040;-68
2023/01/22 16:52:05;;;;;;;3.50;2.10;;;;;;;;;;5000791;28;20308;-69
2023/01/22 16:54:31;;;;;;;4.60;2.42;;;;;;;;;;5003833;28;20529;-70
2023/01/22 16:56:57;;;;;;;3.72;2.25;;;;;;;;;;5004080;28;20029;-68
2023/01/22 16:59:22;;;;;;;4.45;2.67;;;;;;;;;;5006244;28;20041;-73
2023/01/22 17:01:47;;;;;;;4.68;2.58;;;;;;;;;;5003528;28;20100;-73
2023/01/22 17:04:13;;;;;;;5.07;2.50;;;;;;;;;;5005723;28;20141;-66
2023/01/22 17:06:56;;;;;;;4.50;2.72;;;;;;;;;;5009114;28;20292;-68
2023/01/22 17:09:26;;;;;;;4.00;2.47;;;;;;;;;;4986926;28;20507;-69
2023/01/22 17:11:55;;;;;;;4.40;2.25;;;;;;;;;;4990762;28;20061;-75
2023/01/22 17:14:21;;;;;;;4.70;2.70;;;;;;;;;;5004585;28;20049;-72
2023/01/22 17:16:46;;;;;;;5.18;2.83;;;;;;;;;;5010385;28;20112;-65
2023/01/22 17:19:11;;;;;;;4.95;2.60;;;;;;;;;;5004564;28;20220;-67
2023/01/22 17:21:37;;;;;;;4.33;2.20;;;;;;;;;;5008544;28;20121;-71
2023/01/22 17:24:03;;;;;;;3.60;2.43;;;;;;;;;;5004879;28;20277;-75
2023/01/22 17:26:29;;;;;;;3.90;2.42;;;;;;;;;;5012128;28;20524;-69
2023/01/22 17:28:54;;;;;;;3.90;2.60;;;;;;;;;;5012182;28;20022;-69
2023/01/22 17:31:23;;;;;;;3.80;2.50;;;;;;;;;;5015334;28;20434;-72
2023/01/22 17:33:48;;;;;;;4.47;2.83;;;;;;;;;;5012879;28;20312;-64
2023/01/22 17:36:14;;;;;;;4.75;2.60;;;;;;;;;;5010886;28;20026;-66
2023/01/22 17:38:39;;;;;;;3.17;2.25;;;;;;;;;;5004496;28;20084;-66
2023/01/22 17:41:05;;;;;;;3.70;2.50;;;;;;;;;;5003174;28;20040;-70
2023/01/22 17:43:31;;;;;;;3.13;2.13;;;;;;;;;;5007570;28;20006;-71
2023/01/22 17:45:56;;;;;;;4.15;2.45;;;;;;;;;;5004681;28;20305;-70
2023/01/22 17:48:21;;;;;;;5.03;2.73;;;;;;;;;;5002232;28;20062;-68
2023/01/22 17:50:48;;;;;;;3.83;2.47;;;;;;;;;;5005636;28;20343;-70
2023/01/22 17:53:13;;;;;;;4.00;2.60;;;;;;;;;;5004799;28;20302;-74
2023/01/22 17:55:39;;;;;;;4.20;2.50;;;;;;;;;;5002227;28;20802;-64
2023/01/22 17:58:04;;;;;;;4.13;2.53;;;;;;;;;;5009804;28;20516;-69
2023/01/22 18:00:30;;;;;;;3.85;2.60;;;;;;;;;;5011981;28;20148;-71
2023/01/22 18:02:55;;;;;;;3.42;2.22;;;;;;;;;;5011315;28;20021;-66
2023/01/22 18:05:24;;;;;;;4.50;2.40;;;;;;;;;;5008760;28;20025;-68
2023/01/22 18:07:49;;;;;;;4.68;2.78;;;;;;;;;;5006046;28;20020;-71
2023/01/22 18:10:14;;;;;;;4.03;2.60;;;;;;;;;;4989368;28;20126;-71
2023/01/22 18:12:41;;;;;;;4.40;2.60;;;;;;;;;;5005766;28;20827;-71
2023/01/22 18:15:06;;;;;;;4.25;2.58;;;;;;;;;;5013022;28;20064;-69
2023/01/22 18:17:31;;;;;;;4.18;2.33;;;;;;;;;;5012103;28;20591;-65
2023/01/22 18:19:57;;;;;;;4.03;2.60;;;;;;;;;;5018996;28;20081;-69
2023/01/22 18:22:23;;;;;;;3.60;2.28;;;;;;;;;;5015361;28;20676;-71
2023/01/22 18:24:48;;;;;;;3.83;2.30;;;;;;;;;;5022989;28;20033;-70
2023/01/22 18:27:15;;;;;;;4.45;2.30;;;;;;;;;;5021276;28;20493;-65
2023/01/22 18:29:40;;;;;;;3.25;2.22;;;;;;;;;;5003378;28;20358;-73
2023/01/22 18:32:05;;;;;;;4.73;2.50;;;;;;;;;;5007921;28;20038;-76
2023/01/22 18:34:31;;;;;;;3.50;2.20;;;;;;;;;;5011143;28;20036;-68
2023/01/22 18:36:56;;;;;;;3.50;2.17;;;;;;;;;;4990204;28;20060;-66
2023/01/22 18:39:22;;;;;;;3.20;2.23;;;;;;;;;;5007118;28;20018;-76
2023/01/22 18:41:47;;;;;;;3.00;2.05;;;;;;;;;;5020408;28;20264;-74
2023/01/22 18:44:13;;;;;;;3.10;2.00;;;;;;;;;;5008681;28;20080;-70
2023/01/22 18:46:41;;;;;;;3.78;2.20;;;;;;;;;;5018426;28;20291;-74
2023/01/22 18:49:07;;;;;;;4.78;2.30;;;;;;;;;;5007101;28;20026;-74
2023/01/22 18:51:32;;;;;;;3.50;2.30;;;;;;;;;;4992678;28;20135;-76
2023/01/22 18:53:58;;;;;;;3.75;2.33;;;;;;;;;;5008353;28;20069;-70
2023/01/22 18:56:26;;;;;;;3.33;2.05;;;;;;;;;;5020431;28;20458;-70
2023/01/22 18:58:55;;;;;;;4.63;2.10;;;;;;;;;;5006149;28;20466;-78
2023/01/22 19:01:21;;;;;;;3.80;2.40;;;;;;;;;;5016360;28;20514;-72
2023/01/22 19:03:47;;;;;;;4.05;2.30;;;;;;;;;;5008675;28;20018;-75
2023/01/22 19:06:15;;;;;;;3.67;2.50;;;;;;;;;;5014089;28;20034;-67
2023/01/22 19:09:07;;;;;;;3.78;2.47;;;;;;;;;;5010744;28;20037;-70
2023/01/22 19:11:33;;;;;;;3.15;2.42;;;;;;;;;;5017549;28;20464;-67
2023/01/22 19:14:01;;;;;;;3.38;2.20;;;;;;;;;;5020091;28;20045;-73
2023/01/22 19:16:27;;;;;;;4.13;2.28;;;;;;;;;;5015262;28;20129;-77
2023/01/22 19:18:56;;;;;;;3.45;2.13;;;;;;;;;;5013729;28;20425;-71
2023/01/22 19:21:21;;;;;;;2.87;2.30;;;;;;;;;;5019365;28;20065;-72
2023/01/22 19:23:47;;;;;;;3.65;2.13;;;;;;;;;;5006530;28;20054;-75
2023/01/22 19:26:22;;;;;;;3.55;2.05;;;;;;;;;;5019200;28;20433;-70
2023/01/22 19:28:47;;;;;;;3.55;1.83;;;;;;;;;;5025583;28;20476;-67
2023/01/22 19:31:13;;;;;;;4.00;2.40;;;;;;;;;;4995193;28;20541;-67
2023/01/22 19:33:38;;;;;;;2.83;1.95;;;;;;;;;;5007484;28;20049;-70
2023/01/22 19:36:04;;;;;;;3.60;2.50;;;;;;;;;;5016306;28;20413;-66
2023/01/22 19:38:29;;;;;;;3.28;2.03;;;;;;;;;;5006078;28;20291;-73
2023/01/22 19:40:54;;;;;;;2.60;1.80;;;;;;;;;;5022591;28;20040;-68